Time;durP1;ratioP1;P1;durP2;ratioP2;P2;SDS_P1;SDS_P2;PMS_P1;PMS_P2;Temp;Humidity;BMP_temperature;BMP_pressure;BME280_temperature;BME280_humidity;BME280_pressure;Samples;Min_cycle;Max_cycle;Signal;HPM_P1;HPM_P2
2023/03/01 00:01:50;;;;;;;0.43;0.43;;;-3.80;99.90;;;;;;5059778;28;20041;-85
2023/03/01 00:04:15;;;;;;;0.08;0.08;;;-3.90;1.00;;;;;;5058912;28;20048;-84
2023/03/01 00:06:45;;;;;;;0.38;0.38;;;-3.90;99.90;;;;;;5058441;28;20483;-84
2023/03/01 00:09:12;;;;;;;0.00;0.00;;;-3.90;99.90;;;;;;5059121;28;20052;-85
2023/03/01 00:11:37;;;;;;;0.43;0.43;;;-4.00;99.90;;;;;;5059801;28;20442;-85
2023/03/01 00:14:06;;;;;;;0.30;0.30;;;-4.00;99.90;;;;;;5059449;28;20045;-85
2023/03/01 00:16:40;;;;;;;0.43;0.43;;;-4.10;99.90;;;;;;5059483;28;20051;-85
2023/03/01 00:19:17;;;;;;;2.42;1.52;;;-4.00;18.50;;;;;;5059085;28;20041;-85
2023/03/01 00:21:43;;;;;;;0.00;0.00;;;-3.90;99.90;;;;;;5061279;28;20124;-84
2023/03/01 00:24:09;;;;;;;1.35;1.25;;;-3.80;99.60;;;;;;5066307;28;20045;-84
2023/03/01 00:26:34;;;;;;;0.30;0.30;;;-3.80;99.90;;;;;;5066868;28;20097;-85
2023/03/01 00:29:00;;;;;;;0.20;0.20;;;-3.80;99.90;;;;;;5060218;28;20083;-84
2023/03/01 00:31:31;;;;;;;0.10;0.10;;;-3.90;25.10;;;;;;5068401;28;20098;-84
2023/03/01 00:34:02;;;;;;;0.30;0.30;;;-3.90;99.90;;;;;;5061936;28;20095;-84
2023/03/01 00:36:34;;;;;;;0.08;0.08;;;-4.00;99.90;;;;;;5064232;28;20523;-84
2023/03/01 00:39:00;;;;;;;0.15;0.15;;;-4.10;99.90;;;;;;5063433;28;20052;-85
2023/03/01 00:41:26;;;;;;;0.05;0.05;;;-4.10;1.00;;;;;;5062997;28;20043;-85
2023/03/01 00:43:52;;;;;;;3.47;2.30;;;-4.20;1.00;;;;;;5061252;28;20128;-84
2023/03/01 00:46:21;;;;;;;0.55;0.55;;;-4.30;77.80;;;;;;5060845;28;20052;-84
2023/03/01 00:48:48;;;;;;;0.70;0.70;;;-4.30;57.80;;;;;;5062102;28;20511;-84
2023/03/01 00:51:19;;;;;;;0.10;0.10;;;-4.40;99.90;;;;;;5060653;28;20509;-85
2023/03/01 00:53:46;;;;;;;0.00;0.00;;;-4.30;1.00;;;;;;5061697;28;20041;-84
2023/03/01 00:56:13;;;;;;;1.08;0.68;;;-4.20;99.90;;;;;;5062259;28;20142;-84
2023/03/01 00:58:39;;;;;;;0.10;0.10;;;-4.20;1.00;;;;;;5061862;28;20103;-84
2023/03/01 01:01:19;;;;;;;0.10;0.10;;;-4.20;5.60;;;;;;5059895;28;20505;-84
2023/03/01 01:04:00;;;;;;;0.10;0.10;;;-4.30;99.90;;;;;;5059955;28;20041;-84
2023/03/01 01:06:29;;;;;;;1.20;1.10;;;-4.30;99.90;;;;;;5061872;28;20068;-85
2023/03/01 01:08:56;;;;;;;2.00;1.15;;;-4.20;1.00;;;;;;5061372;28;20124;-84
2023/03/01 01:11:24;;;;;;;0.20;0.20;;;-4.10;99.90;;;;;;5093584;28;20471;-84
2023/03/01 01:13:50;;;;;;;0.80;0.70;;;-4.00;99.90;;;;;;5061446;28;20041;-85
2023/03/01 01:16:18;;;;;;;0.65;0.65;;;-3.90;74.60;;;;;;5061524;28;20045;-85
2023/03/01 01:18:44;;;;;;;0.10;0.10;;;-3.90;99.90;;;;;;5060047;28;20040;-85
2023/03/01 01:21:15;;;;;;;1.35;0.95;;;-3.80;1.00;;;;;;5061564;28;20044;-85
2023/03/01 01:23:42;;;;;;;0.20;0.20;;;-3.80;99.90;;;;;;5060905;28;20040;-84
2023/03/01 01:26:11;;;;;;;0.15;0.15;;;-3.90;99.90;;;;;;5061436;28;20048;-85
2023/03/01 01:28:37;;;;;;;1.60;1.15;;;-3.90;1.00;;;;;;5061522;28;20045;-85
2023/03/01 01:31:03;;;;;;;1.13;0.93;;;-3.80;99.90;;;;;;5060361;28;20041;-85
2023/03/01 01:33:28;;;;;;;2.92;2.22;;;-3.90;99.90;;;;;;5058216;28;20069;-84
2023/03/01 01:35:54;;;;;;;1.08;0.98;;;-4.00;1.00;;;;;;5060290;28;20090;-85
2023/03/01 01:38:21;;;;;;;0.10;0.10;;;-4.00;1.00;;;;;;5062040;28;20033;-85
2023/03/01 01:40:47;;;;;;;1.88;1.65;;;-4.10;1.00;;;;;;5062120;28;20045;-85
2023/03/01 01:43:23;;;;;;;2.20;1.95;;;-4.30;99.90;;;;;;5061082;28;20041;-84
2023/03/01 01:45:49;;;;;;;0.30;0.30;;;-4.40;90.10;;;;;;5094173;28;20053;-84
2023/03/01 01:48:21;;;;;;;0.10;0.10;;;-4.40;99.90;;;;;;5062637;28;20096;-86
2023/03/01 01:51:00;;;;;;;1.38;1.30;;;-4.50;99.90;;;;;;5063034;28;20049;-84
2023/03/01 01:53:26;;;;;;;0.00;0.00;;;-4.60;1.00;;;;;;5063228;28;20041;-84
2023/03/01 01:55:56;;;;;;;0.13;0.13;;;-4.60;1.00;;;;;;5063055;28;20459;-84
2023/03/01 01:58:25;;;;;;;0.40;0.40;;;-4.70;1.00;;;;;;5062745;28;20047;-84
2023/03/01 02:00:51;;;;;;;1.75;1.65;;;-4.70;99.90;;;;;;5063532;28;20037;-84
2023/03/01 02:03:28;;;;;;;0.30;0.30;;;-4.60;99.90;;;;;;5073181;28;20071;-84
2023/03/01 02:06:11;;;;;;;0.20;0.20;;;-4.50;1.00;;;;;;5072806;28;20037;-84
2023/03/01 02:08:40;;;;;;;0.85;0.85;;;-4.60;77.10;;;;;;5067291;28;20041;-85
2023/03/01 02:11:06;;;;;;;0.30;0.30;;;-4.60;99.90;;;;;;5064326;28;20076;-84
2023/03/01 02:13:33;;;;;;;0.00;0.00;;;-4.60;1.00;;;;;;5064119;28;20072;-85
2023/03/01 02:16:01;;;;;;;0.17;0.15;;;-4.70;99.90;;;;;;5064497;28;20033;-84
2023/03/01 02:18:27;;;;;;;1.13;1.10;;;-4.70;99.90;;;;;;5064295;28;20041;-84
2023/03/01 02:21:17;;;;;;;0.57;0.57;;;-4.80;1.00;;;;;;5096802;28;20043;-84
2023/03/01 02:23:43;;;;;;;0.10;0.10;;;-4.80;98.70;;;;;;5066873;28;20067;-83
2023/03/01 02:26:34;;;;;;;0.15;0.15;;;-4.70;99.90;;;;;;5067317;28;20044;-84
2023/03/01 02:29:00;;;;;;;0.20;0.20;;;-4.60;1.00;;;;;;5068442;28;20067;-84
2023/03/01 02:31:41;;;;;;;0.08;0.08;;;-4.70;1.00;;;;;;5068053;28;20041;-84
2023/03/01 02:34:12;;;;;;;0.10;0.10;;;-4.70;99.90;;;;;;5066516;28;20029;-84
2023/03/01 02:36:45;;;;;;;0.10;0.10;;;-4.80;99.90;;;;;;5066837;28;20044;-84
2023/03/01 02:39:18;;;;;;;1.33;1.23;;;-4.80;1.00;;;;;;5065617;28;20116;-84
2023/03/01 02:41:51;;;;;;;0.00;0.00;;;-4.80;1.00;;;;;;5066854;28;20076;-84
2023/03/01 02:44:17;;;;;;;0.55;0.55;;;-4.80;1.00;;;;;;5067742;28;20057;-83
2023/03/01 02:46:46;;;;;;;0.43;0.43;;;-4.80;99.50;;;;;;5067496;28;20068;-84
2023/03/01 02:49:27;;;;;;;0.13;0.13;;;-4.80;99.90;;;;;;5066927;28;20044;-84
2023/03/01 02:52:17;;;;;;;0.90;0.90;;;-4.80;99.90;;;;;;5066480;28;20526;-83
2023/03/01 02:55:04;;;;;;;1.80;1.70;;;-4.70;63.20;;;;;;5067049;28;20102;-83
2023/03/01 02:57:32;;;;;;;0.38;0.38;;;-4.80;99.90;;;;;;5068004;28;20103;-83
2023/03/01 03:00:06;;;;;;;1.95;1.38;;;-4.80;1.00;;;;;;5067942;28;20048;-84
2023/03/01 03:02:37;;;;;;;0.10;0.10;;;-4.90;99.90;;;;;;5068259;28;20137;-83
2023/03/01 03:05:10;;;;;;;0.20;0.20;;;-4.90;99.90;;;;;;5067866;28;20045;-84
2023/03/01 03:07:37;;;;;;;0.70;0.70;;;-4.90;1.00;;;;;;5067663;28;20051;-84
2023/03/01 03:10:06;;;;;;;0.38;0.38;;;-4.90;99.90;;;;;;5067056;28;20065;-83
2023/03/01 03:12:31;;;;;;;0.50;0.50;;;-4.90;99.90;;;;;;5065864;28;20124;-83
2023/03/01 03:14:57;;;;;;;1.23;1.08;;;-5.00;99.90;;;;;;5064209;28;20502;-85
2023/03/01 03:17:23;;;;;;;0.40;0.40;;;-5.00;99.90;;;;;;5064332;28;20067;-83
2023/03/01 03:19:48;;;;;;;0.03;0.03;;;-5.00;1.00;;;;;;5064149;28;20090;-83
2023/03/01 03:22:14;;;;;;;0.28;0.28;;;-5.00;28.90;;;;;;5063567;28;20040;-85
2023/03/01 03:24:40;;;;;;;2.92;2.38;;;-5.00;6.00;;;;;;5064228;28;20048;-81
2023/03/01 03:27:06;;;;;;;0.10;0.10;;;-5.00;99.90;;;;;;5063562;28;20041;-81
2023/03/01 03:29:33;;;;;;;1.55;0.68;;;-5.00;99.90;;;;;;5063490;28;20041;-82
2023/03/01 03:31:59;;;;;;;3.75;1.85;;;-5.00;99.90;;;;;;5063476;28;20048;-82
2023/03/01 03:34:24;;;;;;;0.57;0.57;;;-5.00;99.90;;;;;;5062643;28;20044;-82
2023/03/01 03:36:56;;;;;;;2.80;1.23;;;-5.10;99.90;;;;;;5062917;28;20040;-82
2023/03/01 03:39:23;;;;;;;0.15;0.15;;;-5.10;99.90;;;;;;5063089;28;20044;-82
2023/03/01 03:41:49;;;;;;;0.95;0.90;;;-5.20;99.90;;;;;;5063206;28;20068;-82
2023/03/01 03:44:14;;;;;;;0.15;0.15;;;-5.30;99.90;;;;;;5063625;28;20143;-82
2023/03/01 03:46:40;;;;;;;0.30;0.30;;;-5.30;99.90;;;;;;5063199;28;20073;-82
2023/03/01 03:49:05;;;;;;;0.10;0.10;;;-5.40;99.90;;;;;;5064115;28;20036;-81
2023/03/01 03:51:31;;;;;;;0.00;0.00;;;-5.50;99.90;;;;;;5063326;28;20052;-81
2023/03/01 03:53:57;;;;;;;0.03;0.03;;;-5.50;99.90;;;;;;5063643;28;20041;-83
2023/03/01 03:56:25;;;;;;;0.08;0.08;;;-5.60;99.90;;;;;;5064690;28;20402;-81
2023/03/01 03:58:54;;;;;;;0.10;0.10;;;-5.70;99.90;;;;;;5063993;28;20037;-82
2023/03/01 04:01:20;;;;;;;0.17;0.17;;;-5.70;99.90;;;;;;5062852;28;20123;-81
2023/03/01 04:03:46;;;;;;;3.40;2.92;;;-5.70;99.90;;;;;;5064771;28;20073;-82
2023/03/01 04:06:13;;;;;;;0.00;0.00;;;-5.60;99.90;;;;;;5065090;28;20080;-82
2023/03/01 04:08:39;;;;;;;0.10;0.10;;;-5.60;99.90;;;;;;5064522;28;20068;-81
2023/03/01 04:13:51;;;;;;;0.30;0.30;;;-5.60;99.90;;;;;;5063887;28;20045;-82
2023/03/01 04:16:17;;;;;;;0.30;0.30;;;-5.70;99.90;;;;;;5064135;28;20086;-82
2023/03/01 04:18:43;;;;;;;0.10;0.10;;;-5.50;1.00;;;;;;5063992;28;20055;-82
2023/03/01 04:21:10;;;;;;;0.10;0.10;;;-5.50;1.00;;;;;;5064074;28;20116;-81
2023/03/01 04:23:35;;;;;;;0.17;0.17;;;-5.50;1.00;;;;;;5064367;28;20041;-82
2023/03/01 04:26:01;;;;;;;0.10;0.10;;;-5.40;1.00;;;;;;5065282;28;20047;-81
2023/03/01 04:28:36;;;;;;;0.25;0.25;;;-5.40;99.90;;;;;;5065381;28;20475;-81
2023/03/01 04:31:13;;;;;;;3.30;2.05;;;-5.40;99.90;;;;;;5064010;28;20045;-81
2023/03/01 04:33:41;;;;;;;0.20;0.20;;;-5.50;99.90;;;;;;5065062;28;20041;-81
2023/03/01 04:36:08;;;;;;;0.10;0.10;;;-5.50;99.90;;;;;;5064746;28;20036;-81
2023/03/01 04:38:36;;;;;;;0.10;0.10;;;-5.50;99.90;;;;;;5065431;28;20041;-81
2023/03/01 04:41:03;;;;;;;0.10;0.10;;;-5.40;99.90;;;;;;5065100;28;20045;-81
2023/03/01 04:43:29;;;;;;;0.45;0.45;;;-5.40;1.00;;;;;;5064223;28;20502;-80
2023/03/01 04:45:59;;;;;;;1.17;1.10;;;-5.40;1.00;;;;;;5063966;28;20048;-81
2023/03/01 04:48:24;;;;;;;0.45;0.45;;;-5.40;1.00;;;;;;5043324;28;20046;-80
2023/03/01 04:50:50;;;;;;;0.20;0.20;;;-5.50;1.00;;;;;;5047927;28;20040;-80
2023/03/01 04:53:16;;;;;;;0.20;0.20;;;-5.50;1.00;;;;;;5061854;28;20040;-80
2023/03/01 04:55:41;;;;;;;0.10;0.10;;;-5.60;1.00;;;;;;5061918;28;20040;-80
2023/03/01 04:58:07;;;;;;;1.17;1.13;;;-5.60;1.00;;;;;;5062093;28;20112;-80
2023/03/01 05:00:32;;;;;;;0.65;0.65;;;-5.60;1.00;;;;;;5061335;28;20036;-80
2023/03/01 05:03:01;;;;;;;0.63;0.63;;;-5.60;1.00;;;;;;5061581;28;20072;-80
2023/03/01 05:05:33;;;;;;;1.40;1.30;;;-5.70;1.00;;;;;;5060797;28;20099;-80
2023/03/01 05:08:02;;;;;;;0.75;0.75;;;-5.70;1.00;;;;;;5061124;28;20047;-81
2023/03/01 05:10:29;;;;;;;0.20;0.20;;;-5.60;1.00;;;;;;5061571;28;20047;-80
2023/03/01 05:12:57;;;;;;;2.00;1.40;;;-5.60;43.70;;;;;;5058077;28;20123;-81
2023/03/01 05:15:26;;;;;;;0.32;0.32;;;-5.50;99.90;;;;;;5058407;28;20418;-80
2023/03/01 05:17:54;;;;;;;0.10;0.10;;;-5.50;99.90;;;;;;5057884;28;20041;-80
2023/03/01 05:20:22;;;;;;;0.73;0.73;;;-5.50;99.90;;;;;;5058131;28;20096;-80
2023/03/01 05:22:48;;;;;;;0.13;0.13;;;-5.60;99.90;;;;;;5058530;28;20041;-80
2023/03/01 05:25:14;;;;;;;0.68;0.68;;;-5.60;99.90;;;;;;5058127;28;20048;-80
2023/03/01 05:27:40;;;;;;;0.10;0.10;;;-5.50;99.90;;;;;;5058502;28;20049;-80
2023/03/01 05:30:15;;;;;;;2.90;1.13;;;-5.50;99.90;;;;;;5058647;28;20609;-80
2023/03/01 05:32:43;;;;;;;0.80;0.80;;;-5.50;99.90;;;;;;5057550;28;20037;-80
2023/03/01 05:35:13;;;;;;;0.20;0.20;;;-5.50;99.90;;;;;;5058541;28;20049;-80
2023/03/01 05:37:40;;;;;;;1.33;1.25;;;-5.50;99.90;;;;;;5057822;28;20037;-80
2023/03/01 05:40:07;;;;;;;0.45;0.45;;;-5.50;99.90;;;;;;5058242;28;20037;-80
2023/03/01 05:42:33;;;;;;;2.47;2.38;;;-5.50;99.90;;;;;;5058184;28;20079;-80
2023/03/01 05:44:58;;;;;;;1.48;1.38;;;-5.60;99.90;;;;;;5058586;28;20486;-80
2023/03/01 05:47:24;;;;;;;0.17;0.17;;;-5.70;99.90;;;;;;5057916;28;20037;-80
2023/03/01 05:49:50;;;;;;;0.40;0.40;;;-5.70;99.90;;;;;;5057586;28;20041;-80
2023/03/01 05:52:15;;;;;;;1.40;1.20;;;-5.70;99.90;;;;;;5057361;28;20405;-80
2023/03/01 05:54:41;;;;;;;0.88;0.88;;;-5.80;99.90;;;;;;5058035;28;20037;-80
2023/03/01 05:57:06;;;;;;;1.05;1.05;;;-5.90;99.90;;;;;;5058651;28;20112;-80
2023/03/01 05:59:32;;;;;;;0.03;0.03;;;-5.90;99.90;;;;;;5063911;28;20095;-80
2023/03/01 06:01:57;;;;;;;0.65;0.65;;;-5.90;99.90;;;;;;5064084;28;20041;-80
2023/03/01 06:04:23;;;;;;;0.63;0.63;;;-6.00;99.90;;;;;;5064187;28;20059;-80
2023/03/01 06:06:49;;;;;;;0.10;0.10;;;-6.00;99.90;;;;;;5064398;28;20060;-80
2023/03/01 06:09:14;;;;;;;0.52;0.52;;;-6.10;99.90;;;;;;5063724;28;20390;-80
2023/03/01 06:11:40;;;;;;;0.20;0.20;;;-6.10;99.90;;;;;;5063379;28;20534;-80
2023/03/01 06:14:07;;;;;;;0.10;0.10;;;-6.20;99.90;;;;;;5063995;28;20394;-80
2023/03/01 06:16:33;;;;;;;0.40;0.40;;;-6.20;99.90;;;;;;5063671;28;20052;-80
2023/03/01 06:18:58;;;;;;;0.00;0.00;;;-6.20;99.90;;;;;;5063727;28;20041;-80
2023/03/01 06:21:24;;;;;;;0.10;0.10;;;-6.20;99.90;;;;;;5063393;28;20063;-80
2023/03/01 06:23:49;;;;;;;0.05;0.05;;;-6.10;99.90;;;;;;5063347;28;20037;-80
2023/03/01 06:26:15;;;;;;;0.10;0.10;;;-6.30;99.90;;;;;;5063418;28;20128;-79
2023/03/01 06:28:40;;;;;;;0.00;0.00;;;-6.30;99.90;;;;;;5061907;28;20127;-79
2023/03/01 06:31:08;;;;;;;0.20;0.20;;;-6.20;99.90;;;;;;5058512;28;20033;-79
2023/03/01 06:33:34;;;;;;;0.00;0.00;;;-6.20;99.90;;;;;;5060767;28;20049;-79
2023/03/01 06:35:59;;;;;;;0.10;0.10;;;-6.10;99.90;;;;;;5060474;28;20494;-79
2023/03/01 06:38:25;;;;;;;0.00;0.00;;;-6.10;99.90;;;;;;5060250;28;20041;-79
2023/03/01 06:40:56;;;;;;;0.20;0.20;;;-6.10;99.90;;;;;;5060044;28;20037;-79
2023/03/01 06:43:23;;;;;;;0.10;0.10;;;-6.10;99.90;;;;;;5060347;28;20122;-79
2023/03/01 06:45:48;;;;;;;0.10;0.10;;;-6.00;99.90;;;;;;5060537;28;20041;-79
2023/03/01 06:48:14;;;;;;;0.00;0.00;;;-5.90;99.90;;;;;;5060170;28;20045;-79
2023/03/01 06:50:40;;;;;;;0.20;0.20;;;-5.80;99.90;;;;;;5060236;28;20067;-79
2023/03/01 06:53:06;;;;;;;0.10;0.10;;;-5.70;99.90;;;;;;5059447;28;20045;-80
2023/03/01 06:55:32;;;;;;;0.10;0.10;;;-5.60;99.90;;;;;;5061173;28;20087;-79
2023/03/01 06:58:01;;;;;;;1.30;1.25;;;-5.60;99.90;;;;;;5057677;28;20041;-79
2023/03/01 07:00:28;;;;;;;0.95;0.95;;;-5.60;99.90;;;;;;5061424;28;20402;-79
2023/03/01 07:02:54;;;;;;;3.65;1.08;;;-5.50;99.90;;;;;;5061053;28;20037;-79
2023/03/01 07:05:20;;;;;;;0.00;0.00;;;-5.50;99.90;;;;;;5059924;28;20440;-80
2023/03/01 07:07:46;;;;;;;5.07;1.30;;;-5.40;99.90;;;;;;5060660;28;20049;-79
2023/03/01 07:10:12;;;;;;;0.00;0.00;;;-5.20;99.90;;;;;;5058228;28;20375;-79
2023/03/01 07:12:38;;;;;;;0.17;0.17;;;-5.10;99.90;;;;;;5046171;28;20064;-79
2023/03/01 07:15:04;;;;;;;1.00;0.90;;;-5.00;99.90;;;;;;5043510;28;20044;-80
2023/03/01 07:17:30;;;;;;;0.00;0.00;;;-4.90;99.90;;;;;;5058903;28;20064;-79
2023/03/01 07:19:56;;;;;;;0.00;0.00;;;-4.80;99.90;;;;;;5055093;28;20067;-79
2023/03/01 07:22:22;;;;;;;0.05;0.05;;;-4.70;99.90;;;;;;5049195;28;20029;-79
2023/03/01 07:24:47;;;;;;;0.65;0.65;;;-4.50;99.90;;;;;;5055648;28;20041;-79
2023/03/01 07:27:13;;;;;;;0.00;0.00;;;-4.50;99.90;;;;;;5055018;28;20098;-79
2023/03/01 07:29:38;;;;;;;0.00;0.00;;;-4.30;99.90;;;;;;5055874;28;20435;-79
2023/03/01 07:32:05;;;;;;;0.30;0.30;;;-4.20;99.90;;;;;;5055188;28;20045;-79
2023/03/01 07:34:31;;;;;;;0.40;0.40;;;-4.00;99.90;;;;;;5055914;28;20076;-79
2023/03/01 07:36:57;;;;;;;1.40;1.30;;;-3.80;99.90;;;;;;5055449;28;20049;-79
2023/03/01 07:39:22;;;;;;;0.40;0.30;;;-3.60;99.90;;;;;;5055829;28;20060;-79
2023/03/01 07:41:49;;;;;;;0.28;0.28;;;-3.30;99.90;;;;;;5055137;28;20037;-79
2023/03/01 07:44:16;;;;;;;0.08;0.08;;;-3.10;99.90;;;;;;5055905;28;20056;-79
2023/03/01 07:46:41;;;;;;;0.10;0.10;;;-2.70;99.90;;;;;;5055807;28;20045;-79
2023/03/01 07:49:07;;;;;;;0.10;0.10;;;-2.40;99.90;;;;;;5055619;28;20116;-80
2023/03/01 07:51:33;;;;;;;0.20;0.20;;;-2.20;99.90;;;;;;5055310;28;20067;-80
2023/03/01 07:53:58;;;;;;;0.75;0.75;;;-2.00;99.90;;;;;;5055451;28;20232;-80
2023/03/01 07:56:24;;;;;;;0.65;0.65;;;-1.80;99.90;;;;;;5056178;28;20033;-79
2023/03/01 07:58:49;;;;;;;0.40;0.30;;;-1.60;99.90;;;;;;5055374;28;20106;-79
2023/03/01 08:01:17;;;;;;;0.57;0.57;;;-1.40;99.90;;;;;;5054964;28;20037;-80
2023/03/01 08:03:46;;;;;;;2.30;0.82;;;-1.30;99.90;;;;;;5055073;28;20056;-80
2023/03/01 08:06:13;;;;;;;0.70;0.70;;;-1.10;99.90;;;;;;5055531;28;20041;-80
2023/03/01 08:08:39;;;;;;;0.40;0.40;;;-1.00;99.90;;;;;;5055732;28;20052;-80
2023/03/01 08:11:07;;;;;;;0.60;0.60;;;-0.90;99.90;;;;;;5055390;28;20044;-79
2023/03/01 08:13:33;;;;;;;0.75;0.75;;;-0.80;99.90;;;;;;5054618;28;20041;-80
2023/03/01 08:16:11;;;;;;;0.15;0.15;;;-0.80;99.90;;;;;;5054332;28;20098;-80
2023/03/01 08:18:37;;;;;;;0.32;0.32;;;-0.70;99.90;;;;;;5054241;28;20094;-80
2023/03/01 08:21:11;;;;;;;0.95;0.95;;;-0.70;99.90;;;;;;5055118;28;20037;-80
2023/03/01 08:23:36;;;;;;;0.30;0.30;;;-0.70;99.90;;;;;;5054939;28;20049;-80
2023/03/01 08:26:06;;;;;;;0.40;0.40;;;-0.60;99.90;;;;;;5054635;28;20052;-79
2023/03/01 08:28:31;;;;;;;0.30;0.30;;;-0.40;99.90;;;;;;5055093;28;20145;-79
2023/03/01 08:30:57;;;;;;;0.95;0.95;;;-0.40;99.90;;;;;;5054343;28;20043;-79
2023/03/01 08:33:23;;;;;;;0.57;0.52;;;-0.30;99.90;;;;;;5055885;28;20037;-79
2023/03/01 08:35:48;;;;;;;0.40;0.40;;;-0.30;99.90;;;;;;5056934;28;20387;-79
2023/03/01 08:38:14;;;;;;;4.13;2.17;;;-0.20;99.90;;;;;;5057096;28;20037;-80
2023/03/01 08:40:40;;;;;;;4.22;1.92;;;-0.20;99.90;;;;;;5057103;28;20207;-80
2023/03/01 08:43:05;;;;;;;2.20;2.05;;;-0.10;99.90;;;;;;5056871;28;20427;-79
2023/03/01 08:45:31;;;;;;;0.40;0.40;;;0.00;99.90;;;;;;5057153;28;20110;-80
2023/03/01 08:47:56;;;;;;;0.10;0.10;;;0.00;99.90;;;;;;5057267;28;20113;-80
2023/03/01 08:50:24;;;;;;;3.85;1.65;;;0.10;99.90;;;;;;5057693;28;20045;-80
2023/03/01 08:52:50;;;;;;;2.15;1.10;;;0.10;99.90;;;;;;5056971;28;20041;-80
2023/03/01 08:55:17;;;;;;;0.32;0.32;;;0.20;99.90;;;;;;5056687;28;20040;-80
2023/03/01 08:57:43;;;;;;;0.50;0.50;;;-0.20;99.90;;;;;;5056603;28;20442;-80
2023/03/01 09:00:11;;;;;;;0.80;0.75;;;1.50;99.90;;;;;;5056377;28;20041;-80
2023/03/01 09:02:37;;;;;;;1.48;1.38;;;0.40;99.90;;;;;;5055836;28;20042;-80
2023/03/01 09:05:02;;;;;;;6.38;1.75;;;0.50;99.90;;;;;;5055532;28;20076;-80
2023/03/01 09:07:28;;;;;;;0.82;0.82;;;0.50;99.90;;;;;;5056101;28;20103;-80
2023/03/01 09:09:55;;;;;;;1.73;1.63;;;0.60;99.90;;;;;;5055482;28;20080;-80
2023/03/01 09:12:21;;;;;;;2.45;2.35;;;0.60;99.90;;;;;;5055761;28;20056;-80
2023/03/01 09:14:46;;;;;;;1.15;1.13;;;0.60;99.90;;;;;;5055443;28;20402;-79
2023/03/01 09:17:12;;;;;;;0.38;0.38;;;0.70;99.90;;;;;;5056730;28;20045;-80
2023/03/01 09:19:37;;;;;;;5.35;3.22;;;0.80;99.90;;;;;;5057482;28;20041;-80
2023/03/01 09:22:04;;;;;;;1.48;1.27;;;0.90;99.90;;;;;;5058036;28;20045;-80
2023/03/01 09:24:29;;;;;;;1.20;1.10;;;1.10;99.90;;;;;;5058894;28;20049;-80
2023/03/01 09:26:56;;;;;;;0.77;0.77;;;1.20;99.90;;;;;;5057828;28;20041;-80
2023/03/01 09:29:22;;;;;;;1.60;1.13;;;1.40;99.90;;;;;;5057091;28;20041;-80
2023/03/01 09:31:48;;;;;;;0.75;0.75;;;1.50;99.90;;;;;;5056295;28;20036;-80
2023/03/01 09:34:19;;;;;;;0.30;0.30;;;1.60;99.90;;;;;;5056545;28;20052;-80
2023/03/01 09:36:44;;;;;;;1.05;0.82;;;1.80;99.90;;;;;;5057983;28;20044;-80
2023/03/01 09:39:10;;;;;;;0.80;0.80;;;1.80;99.90;;;;;;5058384;28;20047;-80
2023/03/01 09:41:45;;;;;;;0.35;0.35;;;1.80;99.90;;;;;;5057949;28;20041;-80
2023/03/01 09:44:31;;;;;;;0.63;0.63;;;1.90;99.90;;;;;;5058293;28;20095;-80
2023/03/01 09:46:58;;;;;;;1.45;1.35;;;1.90;99.90;;;;;;5058127;28;20106;-81
2023/03/01 09:49:39;;;;;;;2.03;1.83;;;1.70;99.90;;;;;;5056475;28;20048;-80
2023/03/01 09:52:19;;;;;;;1.27;1.17;;;1.70;99.90;;;;;;5037865;28;20079;-81
2023/03/01 09:54:45;;;;;;;1.40;1.30;;;1.60;99.90;;;;;;5049665;28;20053;-80
2023/03/01 09:57:15;;;;;;;7.53;1.55;;;1.70;99.90;;;;;;5057238;28;20045;-80
2023/03/01 09:59:59;;;;;;;0.63;0.60;;;1.70;99.90;;;;;;5058611;28;20045;-80
2023/03/01 10:02:39;;;;;;;1.20;1.15;;;1.80;99.90;;;;;;5057022;28;20045;-80
2023/03/01 10:05:14;;;;;;;1.98;1.85;;;1.90;99.90;;;;;;5057132;28;20495;-81
2023/03/01 10:07:54;;;;;;;0.85;0.85;;;2.10;99.90;;;;;;5056578;28;20045;-81
2023/03/01 10:10:35;;;;;;;1.33;1.23;;;2.10;99.90;;;;;;5057232;28;20049;-81
2023/03/01 10:13:15;;;;;;;0.57;0.57;;;2.20;99.90;;;;;;5056973;28;20068;-81
2023/03/01 10:15:49;;;;;;;3.33;3.03;;;2.30;99.90;;;;;;5056858;28;20041;-81
2023/03/01 10:18:22;;;;;;;2.30;1.73;;;2.30;99.90;;;;;;5056326;28;20045;-81
2023/03/01 10:21:03;;;;;;;1.40;1.30;;;2.40;99.90;;;;;;5056783;28;20068;-81
2023/03/01 10:23:34;;;;;;;3.65;3.35;;;2.50;99.90;;;;;;5055809;28;20118;-81
2023/03/01 10:26:25;;;;;;;2.13;1.20;;;2.50;99.90;;;;;;5057557;28;20052;-81
2023/03/01 10:29:04;;;;;;;2.42;2.20;;;2.60;99.90;;;;;;5057856;28;20068;-81
2023/03/01 10:31:47;;;;;;;3.28;3.05;;;2.80;99.90;;;;;;5047370;28;20060;-81
2023/03/01 10:34:20;;;;;;;1.00;1.00;;;3.00;99.90;;;;;;5078934;28;20535;-81
2023/03/01 10:36:51;;;;;;;2.08;1.92;;;3.20;99.90;;;;;;5052229;28;20103;-81
2023/03/01 10:39:20;;;;;;;1.77;1.65;;;3.40;99.90;;;;;;5051473;28;20483;-81
2023/03/01 10:41:56;;;;;;;2.55;2.35;;;3.50;99.90;;;;;;5048952;28;20041;-82
2023/03/01 10:44:40;;;;;;;1.85;1.67;;;3.60;99.90;;;;;;5056904;28;20048;-82
2023/03/01 10:47:16;;;;;;;1.77;1.60;;;3.80;99.90;;;;;;5055337;28;20561;-82
2023/03/01 10:49:57;;;;;;;1.08;0.98;;;3.80;99.90;;;;;;5049820;28;20049;-82
2023/03/01 10:52:26;;;;;;;4.63;3.58;;;4.00;99.90;;;;;;5058356;28;20411;-82
2023/03/01 10:55:18;;;;;;;1.80;1.70;;;4.10;99.90;;;;;;5058100;28;20052;-82
2023/03/01 10:57:43;;;;;;;1.27;1.17;;;4.30;99.90;;;;;;5052547;28;20107;-82
2023/03/01 11:00:25;;;;;;;2.85;1.73;;;4.40;99.90;;;;;;5061415;28;20429;-82
2023/03/01 11:03:13;;;;;;;2.97;2.13;;;4.60;1.00;;;;;;5054484;28;20694;-82
2023/03/01 11:05:55;;;;;;;2.55;2.17;;;4.80;99.90;;;;;;5059662;28;20059;-82
2023/03/01 11:08:32;;;;;;;2.75;1.67;;;4.90;94.70;;;;;;5061270;28;20044;-82
2023/03/01 11:11:31;;;;;;;3.10;1.55;;;5.20;1.00;;;;;;5055675;28;20045;-82
2023/03/01 11:14:18;;;;;;;1.20;0.77;;;5.30;1.00;;;;;;5059680;28;20124;-82
2023/03/01 11:16:47;;;;;;;1.05;0.95;;;5.40;1.00;;;;;;5062498;28;20136;-82
2023/03/01 11:19:12;;;;;;;6.82;1.67;;;5.50;99.90;;;;;;5062504;28;20146;-83
2023/03/01 11:21:47;;;;;;;1.75;1.45;;;5.60;99.90;;;;;;5043007;28;20038;-82
2023/03/01 11:24:15;;;;;;;1.35;1.08;;;5.60;54.10;;;;;;5041322;28;20049;-83
2023/03/01 11:26:46;;;;;;;0.60;0.47;;;5.70;27.20;;;;;;5039769;28;20041;-83
2023/03/01 11:29:26;;;;;;;3.25;2.33;;;5.70;10.00;;;;;;5074217;28;20513;-82
2023/03/01 11:31:55;;;;;;;0.68;0.63;;;5.80;1.00;;;;;;5043761;28;20045;-83
2023/03/01 11:34:32;;;;;;;1.63;0.85;;;5.90;1.00;;;;;;5051405;28;20524;-83
2023/03/01 11:37:01;;;;;;;0.10;0.10;;;6.00;1.00;;;;;;5060544;28;20037;-83
2023/03/01 11:39:59;;;;;;;0.57;0.57;;;6.20;1.00;;;;;;5065341;28;20052;-82
2023/03/01 11:42:45;;;;;;;1.40;0.73;;;6.40;99.90;;;;;;5063283;28;20467;-83
2023/03/01 11:45:12;;;;;;;1.40;0.95;;;6.60;99.90;;;;;;5062675;28;20049;-83
2023/03/01 11:48:11;;;;;;;8.18;2.53;;;6.80;99.90;;;;;;5060407;28;20076;-83
2023/03/01 11:50:48;;;;;;;0.90;0.80;;;6.90;99.90;;;;;;5062890;28;20033;-83
2023/03/01 11:53:32;;;;;;;1.25;0.52;;;7.20;99.90;;;;;;5045183;28;20055;-84
2023/03/01 11:56:23;;;;;;;1.35;1.00;;;7.30;99.90;;;;;;5058908;28;20036;-83
2023/03/01 11:59:23;;;;;;;1.17;0.90;;;7.30;99.90;;;;;;5056352;28;20044;-84
2023/03/01 12:02:25;;;;;;;1.75;1.17;;;7.50;99.90;;;;;;5057297;28;20060;-83
2023/03/01 12:05:20;;;;;;;3.50;0.77;;;7.50;99.90;;;;;;5044403;28;20526;-84
2023/03/01 12:08:14;;;;;;;1.13;0.88;;;7.70;99.90;;;;;;5063634;28;20049;-83
2023/03/01 12:10:43;;;;;;;1.42;0.75;;;7.70;99.90;;;;;;5060220;28;20052;-86
2023/03/01 12:13:31;;;;;;;1.75;1.00;;;7.80;99.90;;;;;;5060568;28;20075;-84
2023/03/01 12:16:06;;;;;;;1.55;1.02;;;7.70;99.90;;;;;;5062716;28;20040;-83
2023/03/01 12:18:53;;;;;;;0.50;0.50;;;7.70;99.90;;;;;;5062699;28;20045;-83
2023/03/01 12:21:57;;;;;;;3.92;1.85;;;7.70;99.90;;;;;;5042888;28;20403;-83
2023/03/01 12:24:31;;;;;;;1.77;1.60;;;7.60;99.90;;;;;;5048480;28;20041;-84
2023/03/01 12:27:39;;;;;;;0.55;0.35;;;7.70;99.90;;;;;;5062218;28;20047;-83
2023/03/01 12:30:36;;;;;;;2.50;1.08;;;7.80;99.90;;;;;;5065390;28;20036;-83
2023/03/01 12:33:11;;;;;;;4.53;1.65;;;7.90;99.90;;;;;;5076389;28;20495;-83
2023/03/01 12:35:49;;;;;;;2.97;2.42;;;8.20;99.90;;;;;;5074233;28;20051;-83
2023/03/01 12:38:37;;;;;;;2.63;2.30;;;8.10;99.90;;;;;;5076426;28;20036;-83
2023/03/01 12:41:22;;;;;;;2.03;0.98;;;8.00;99.90;;;;;;5066029;28;20048;-85
2023/03/01 12:44:02;;;;;;;1.05;0.75;;;8.10;99.90;;;;;;5061732;28;20129;-83
2023/03/01 12:46:53;;;;;;;1.77;1.58;;;8.20;99.90;;;;;;5064271;28;20052;-84
2023/03/01 12:49:28;;;;;;;3.70;2.33;;;8.00;99.90;;;;;;5062055;28;20045;-83
2023/03/01 12:52:26;;;;;;;1.17;0.80;;;8.20;99.90;;;;;;5061909;28;20033;-84
2023/03/01 12:54:55;;;;;;;0.22;0.22;;;8.10;99.90;;;;;;5060179;28;20545;-84
2023/03/01 12:57:36;;;;;;;2.28;1.13;;;8.20;99.90;;;;;;5057769;28;20083;-84
2023/03/01 13:00:26;;;;;;;1.60;1.13;;;8.20;99.90;;;;;;5058637;28;20033;-84
2023/03/01 13:03:18;;;;;;;0.75;0.75;;;8.20;99.90;;;;;;5057906;28;20056;-84
2023/03/01 13:06:08;;;;;;;1.35;1.17;;;8.10;99.90;;;;;;5053590;28;20059;-84
2023/03/01 13:08:45;;;;;;;2.00;0.82;;;8.20;99.90;;;;;;5035973;28;20484;-84
2023/03/01 13:11:22;;;;;;;3.00;1.73;;;8.30;99.90;;;;;;5036310;28;20049;-84
2023/03/01 13:13:48;;;;;;;1.27;1.17;;;8.30;99.90;;;;;;5039910;28;20051;-84
2023/03/01 13:16:29;;;;;;;1.60;1.13;;;8.40;99.90;;;;;;5054779;28;20037;-84